Current Weather

Fort Worth Nas Jrb (Carswell Fld)

Fort Worth, Texas (KNFW)

Report from: Sunday, February 25, 2024 2:52 PM CST
Current time: Sunday, February 25, 2024 3:43 PM CST

Nearby weather – Weather history – Daily summaries
Weather forecast

Temperature29.4°C (84.9°F)
Heat index28.0°C (82.3°F)
Dew point6.1°C (43.0°F)
Winds 12 kts (6.2 m/s, 13.8 mph) Southwest (220°)
Visibility10 mi. (16.1 km)
Clouds Sky clear
Altimeter29.82 in.Hg (1010 mB)
Relative humidity23 %
Density altitude1,955 ft. (596 m)
Sea-level pressure100.8 kPa (1008 mB, 29.78 in.Hg)
Remarks System requires maintenance
Automated weather observing station with precipitation discriminator
Pressure falling more slowly
Flight conditions Visual Meteorological Conditions
Raw dataKNFW 252052Z 22012KT 10SM CLR 29/06 A2982 RMK AO2 SLP084 T02940061 56031 $
An error has occurred. This application may no longer respond until reloaded. Reload 🗙